sensor_id;sensor_type;location;lat;lon;timestamp;P1;durP1;ratioP1;P2;durP2;ratioP2
20739;SDS011;10530;49.968;19.844;2022-09-17T00:02:00;6.68;;;2.60;;
20739;SDS011;10530;49.968;19.844;2022-09-17T00:07:03;7.63;;;3.20;;
20739;SDS011;10530;49.968;19.844;2022-09-17T00:12:06;8.67;;;2.87;;
20739;SDS011;10530;49.968;19.844;2022-09-17T00:17:09;6.57;;;2.70;;
20739;SDS011;10530;49.968;19.844;2022-09-17T00:22:12;7.40;;;2.60;;
20739;SDS011;10530;49.968;19.844;2022-09-17T00:27:15;5.93;;;2.78;;
20739;SDS011;10530;49.968;19.844;2022-09-17T00:32:18;6.97;;;2.55;;
20739;SDS011;10530;49.968;19.844;2022-09-17T00:37:20;6.57;;;2.80;;
20739;SDS011;10530;49.968;19.844;2022-09-17T00:42:23;5.63;;;2.55;;
20739;SDS011;10530;49.968;19.844;2022-09-17T00:52:33;5.95;;;2.50;;
20739;SDS011;10530;49.968;19.844;2022-09-17T00:57:48;5.30;;;2.47;;
20739;SDS011;10530;49.968;19.844;2022-09-17T01:02:54;7.43;;;2.77;;
20739;SDS011;10530;49.968;19.844;2022-09-17T01:08:03;5.75;;;2.60;;
20739;SDS011;10530;49.968;19.844;2022-09-17T01:19:33;6.10;;;2.40;;
20739;SDS011;10530;49.968;19.844;2022-09-17T01:29:40;9.13;;;2.50;;
20739;SDS011;10530;49.968;19.844;2022-09-17T01:40:26;5.95;;;2.50;;
20739;SDS011;10530;49.968;19.844;2022-09-17T01:45:40;6.22;;;2.20;;
20739;SDS011;10530;49.968;19.844;2022-09-17T01:50:51;6.55;;;2.35;;
20739;SDS011;10530;49.968;19.844;2022-09-17T01:55:59;5.37;;;2.40;;
20739;SDS011;10530;49.968;19.844;2022-09-17T02:01:04;5.20;;;2.00;;
20739;SDS011;10530;49.968;19.844;2022-09-17T02:06:11;5.68;;;2.40;;
20739;SDS011;10530;49.968;19.844;2022-09-17T02:11:18;7.22;;;2.45;;
20739;SDS011;10530;49.968;19.844;2022-09-17T02:16:23;5.57;;;2.20;;
20739;SDS011;10530;49.968;19.844;2022-09-17T02:32:11;7.30;;;2.50;;
20739;SDS011;10530;49.968;19.844;2022-09-17T02:37:14;6.70;;;2.28;;
20739;SDS011;10530;49.968;19.844;2022-09-17T02:58:06;4.80;;;2.17;;
20739;SDS011;10530;49.968;19.844;2022-09-17T03:03:35;5.97;;;2.35;;
20739;SDS011;10530;49.968;19.844;2022-09-17T03:08:41;6.43;;;2.47;;
20739;SDS011;10530;49.968;19.844;2022-09-17T03:13:43;4.67;;;1.90;;
20739;SDS011;10530;49.968;19.844;2022-09-17T03:18:46;8.07;;;2.42;;
20739;SDS011;10530;49.968;19.844;2022-09-17T03:23:49;5.78;;;2.45;;
20739;SDS011;10530;49.968;19.844;2022-09-17T03:28:52;7.25;;;1.98;;
20739;SDS011;10530;49.968;19.844;2022-09-17T03:33:54;6.47;;;2.30;;
20739;SDS011;10530;49.968;19.844;2022-09-17T03:38:58;6.60;;;2.47;;
20739;SDS011;10530;49.968;19.844;2022-09-17T03:44:01;6.07;;;2.13;;
20739;SDS011;10530;49.968;19.844;2022-09-17T03:49:04;5.45;;;2.03;;
20739;SDS011;10530;49.968;19.844;2022-09-17T03:54:06;5.25;;;2.33;;
20739;SDS011;10530;49.968;19.844;2022-09-17T03:59:10;6.10;;;2.75;;
20739;SDS011;10530;49.968;19.844;2022-09-17T04:04:12;6.70;;;2.30;;
20739;SDS011;10530;49.968;19.844;2022-09-17T04:09:15;5.70;;;2.10;;
20739;SDS011;10530;49.968;19.844;2022-09-17T04:14:18;5.85;;;2.15;;
20739;SDS011;10530;49.968;19.844;2022-09-17T04:19:20;6.95;;;2.47;;
20739;SDS011;10530;49.968;19.844;2022-09-17T04:24:23;9.57;;;2.92;;
20739;SDS011;10530;49.968;19.844;2022-09-17T04:29:26;7.10;;;2.93;;
20739;SDS011;10530;49.968;19.844;2022-09-17T04:34:29;5.53;;;2.28;;
20739;SDS011;10530;49.968;19.844;2022-09-17T04:39:32;7.03;;;2.53;;
20739;SDS011;10530;49.968;19.844;2022-09-17T04:44:35;5.53;;;1.90;;
20739;SDS011;10530;49.968;19.844;2022-09-17T04:49:38;5.88;;;2.47;;
20739;SDS011;10530;49.968;19.844;2022-09-17T04:54:40;6.67;;;2.70;;
20739;SDS011;10530;49.968;19.844;2022-09-17T04:59:43;4.88;;;2.35;;
20739;SDS011;10530;49.968;19.844;2022-09-17T05:04:46;7.22;;;2.80;;
20739;SDS011;10530;49.968;19.844;2022-09-17T05:09:49;4.82;;;2.08;;
20739;SDS011;10530;49.968;19.844;2022-09-17T05:14:52;8.68;;;2.95;;
20739;SDS011;10530;49.968;19.844;2022-09-17T05:19:54;10.43;;;2.43;;
20739;SDS011;10530;49.968;19.844;2022-09-17T05:24:57;8.27;;;2.90;;
20739;SDS011;10530;49.968;19.844;2022-09-17T05:29:59;7.75;;;2.97;;
20739;SDS011;10530;49.968;19.844;2022-09-17T05:35:03;7.35;;;2.63;;
20739;SDS011;10530;49.968;19.844;2022-09-17T05:40:07;5.18;;;2.38;;
20739;SDS011;10530;49.968;19.844;2022-09-17T05:45:10;6.13;;;2.53;;
20739;SDS011;10530;49.968;19.844;2022-09-17T05:50:12;7.30;;;2.70;;
20739;SDS011;10530;49.968;19.844;2022-09-17T05:55:16;6.25;;;2.55;;
20739;SDS011;10530;49.968;19.844;2022-09-17T06:00:23;5.38;;;2.55;;
20739;SDS011;10530;49.968;19.844;2022-09-17T06:05:27;6.32;;;2.50;;
20739;SDS011;10530;49.968;19.844;2022-09-17T06:10:30;8.00;;;2.43;;
20739;SDS011;10530;49.968;19.844;2022-09-17T06:15:33;5.20;;;2.35;;
20739;SDS011;10530;49.968;19.844;2022-09-17T06:20:36;7.40;;;2.50;;
20739;SDS011;10530;49.968;19.844;2022-09-17T06:25:39;8.48;;;2.60;;
20739;SDS011;10530;49.968;19.844;2022-09-17T06:30:41;6.25;;;2.47;;
20739;SDS011;10530;49.968;19.844;2022-09-17T06:35:44;5.40;;;2.57;;
20739;SDS011;10530;49.968;19.844;2022-09-17T06:40:50;5.47;;;2.58;;
20739;SDS011;10530;49.968;19.844;2022-09-17T06:46:00;7.32;;;2.72;;
20739;SDS011;10530;49.968;19.844;2022-09-17T06:51:07;6.07;;;2.40;;
20739;SDS011;10530;49.968;19.844;2022-09-17T06:56:11;6.63;;;2.97;;
20739;SDS011;10530;49.968;19.844;2022-09-17T07:01:14;6.67;;;2.60;;
20739;SDS011;10530;49.968;19.844;2022-09-17T07:06:17;5.28;;;2.58;;
20739;SDS011;10530;49.968;19.844;2022-09-17T07:11:21;5.50;;;2.25;;
20739;SDS011;10530;49.968;19.844;2022-09-17T07:16:24;5.85;;;2.30;;
20739;SDS011;10530;49.968;19.844;2022-09-17T07:21:33;7.18;;;2.75;;
20739;SDS011;10530;49.968;19.844;2022-09-17T07:26:36;6.97;;;2.20;;
20739;SDS011;10530;49.968;19.844;2022-09-17T07:31:39;5.90;;;2.53;;
20739;SDS011;10530;49.968;19.844;2022-09-17T07:36:43;7.07;;;2.60;;
20739;SDS011;10530;49.968;19.844;2022-09-17T07:41:46;7.03;;;2.50;;
20739;SDS011;10530;49.968;19.844;2022-09-17T07:46:48;6.82;;;2.63;;
20739;SDS011;10530;49.968;19.844;2022-09-17T07:51:52;5.87;;;2.17;;
20739;SDS011;10530;49.968;19.844;2022-09-17T07:56:56;5.57;;;2.20;;
20739;SDS011;10530;49.968;19.844;2022-09-17T08:01:58;5.53;;;2.38;;
20739;SDS011;10530;49.968;19.844;2022-09-17T08:07:02;6.22;;;2.30;;
20739;SDS011;10530;49.968;19.844;2022-09-17T08:12:05;8.38;;;3.53;;
20739;SDS011;10530;49.968;19.844;2022-09-17T08:17:08;7.97;;;2.20;;
20739;SDS011;10530;49.968;19.844;2022-09-17T08:22:11;7.97;;;2.20;;
20739;SDS011;10530;49.968;19.844;2022-09-17T08:27:14;4.50;;;1.88;;
20739;SDS011;10530;49.968;19.844;2022-09-17T08:32:17;5.60;;;2.20;;
20739;SDS011;10530;49.968;19.844;2022-09-17T08:37:20;4.07;;;1.80;;
20739;SDS011;10530;49.968;19.844;2022-09-17T08:42:26;4.63;;;1.90;;
20739;SDS011;10530;49.968;19.844;2022-09-17T08:47:35;6.43;;;2.30;;
20739;SDS011;10530;49.968;19.844;2022-09-17T08:58:03;5.00;;;1.60;;
20739;SDS011;10530;49.968;19.844;2022-09-17T09:03:31;5.18;;;1.90;;
20739;SDS011;10530;49.968;19.844;2022-09-17T09:08:41;5.07;;;2.10;;
20739;SDS011;10530;49.968;19.844;2022-09-17T09:13:49;4.93;;;1.90;;
20739;SDS011;10530;49.968;19.844;2022-09-17T09:19:21;4.68;;;2.08;;
20739;SDS011;10530;49.968;19.844;2022-09-17T09:24:54;4.28;;;1.80;;
20739;SDS011;10530;49.968;19.844;2022-09-17T09:30:05;5.93;;;2.00;;
20739;SDS011;10530;49.968;19.844;2022-09-17T09:35:33;4.33;;;1.90;;
20739;SDS011;10530;49.968;19.844;2022-09-17T09:46:06;4.63;;;1.85;;
20739;SDS011;10530;49.968;19.844;2022-09-17T10:02:08;4.97;;;2.20;;
20739;SDS011;10530;49.968;19.844;2022-09-17T10:07:12;9.40;;;2.25;;
20739;SDS011;10530;49.968;19.844;2022-09-17T10:12:16;5.78;;;3.00;;
20739;SDS011;10530;49.968;19.844;2022-09-17T10:17:23;5.15;;;2.28;;
20739;SDS011;10530;49.968;19.844;2022-09-17T10:22:45;4.60;;;2.03;;
20739;SDS011;10530;49.968;19.844;2022-09-17T10:27:49;4.80;;;2.10;;
20739;SDS011;10530;49.968;19.844;2022-09-17T10:38:29;6.63;;;2.50;;
20739;SDS011;10530;49.968;19.844;2022-09-17T10:43:34;4.13;;;2.10;;
20739;SDS011;10530;49.968;19.844;2022-09-17T10:48:39;5.30;;;2.03;;
20739;SDS011;10530;49.968;19.844;2022-09-17T11:26:28;5.25;;;2.10;;
20739;SDS011;10530;49.968;19.844;2022-09-17T11:31:49;4.88;;;1.80;;
20739;SDS011;10530;49.968;19.844;2022-09-17T11:42:40;4.30;;;2.13;;
20739;SDS011;10530;49.968;19.844;2022-09-17T11:47:53;4.77;;;1.87;;
20739;SDS011;10530;49.968;19.844;2022-09-17T11:53:21;5.82;;;2.83;;
20739;SDS011;10530;49.968;19.844;2022-09-17T11:58:48;5.30;;;1.90;;
20739;SDS011;10530;49.968;19.844;2022-09-17T12:03:55;6.47;;;2.20;;
20739;SDS011;10530;49.968;19.844;2022-09-17T12:09:11;6.30;;;2.38;;
20739;SDS011;10530;49.968;19.844;2022-09-17T12:14:21;6.33;;;2.17;;
20739;SDS011;10530;49.968;19.844;2022-09-17T12:24:41;5.82;;;2.40;;
20739;SDS011;10530;49.968;19.844;2022-09-17T12:46:46;7.05;;;3.70;;
20739;SDS011;10530;49.968;19.844;2022-09-17T13:02:52;6.63;;;3.67;;
20739;SDS011;10530;49.968;19.844;2022-09-17T13:24:34;6.90;;;2.60;;
20739;SDS011;10530;49.968;19.844;2022-09-17T13:34:49;7.33;;;2.70;;
20739;SDS011;10530;49.968;19.844;2022-09-17T13:39:51;10.80;;;2.90;;
20739;SDS011;10530;49.968;19.844;2022-09-17T13:50:23;5.78;;;2.80;;
20739;SDS011;10530;49.968;19.844;2022-09-17T13:55:37;6.38;;;2.85;;
20739;SDS011;10530;49.968;19.844;2022-09-17T14:00:49;7.17;;;2.80;;
20739;SDS011;10530;49.968;19.844;2022-09-17T14:21:36;5.25;;;2.67;;
20739;SDS011;10530;49.968;19.844;2022-09-17T14:32:07;9.43;;;3.17;;
20739;SDS011;10530;49.968;19.844;2022-09-17T14:37:21;11.00;;;4.13;;
20739;SDS011;10530;49.968;19.844;2022-09-17T14:42:28;6.40;;;3.22;;
20739;SDS011;10530;49.968;19.844;2022-09-17T14:47:36;7.28;;;3.78;;
20739;SDS011;10530;49.968;19.844;2022-09-17T14:52:39;7.73;;;3.73;;
20739;SDS011;10530;49.968;19.844;2022-09-17T14:57:51;11.20;;;4.10;;
20739;SDS011;10530;49.968;19.844;2022-09-17T15:02:55;8.90;;;4.05;;
20739;SDS011;10530;49.968;19.844;2022-09-17T15:08:06;7.65;;;3.47;;
20739;SDS011;10530;49.968;19.844;2022-09-17T15:13:13;8.13;;;3.47;;
20739;SDS011;10530;49.968;19.844;2022-09-17T15:18:19;9.17;;;3.67;;
20739;SDS011;10530;49.968;19.844;2022-09-17T15:23:24;7.57;;;3.22;;
20739;SDS011;10530;49.968;19.844;2022-09-17T15:28:40;6.57;;;3.33;;
20739;SDS011;10530;49.968;19.844;2022-09-17T15:33:45;9.27;;;3.60;;
20739;SDS011;10530;49.968;19.844;2022-09-17T15:38:49;8.75;;;3.65;;
20739;SDS011;10530;49.968;19.844;2022-09-17T15:43:52;10.57;;;4.33;;
20739;SDS011;10530;49.968;19.844;2022-09-17T15:49:34;14.38;;;5.85;;
20739;SDS011;10530;49.968;19.844;2022-09-17T15:54:37;15.25;;;5.65;;
20739;SDS011;10530;49.968;19.844;2022-09-17T15:59:40;11.25;;;4.90;;
20739;SDS011;10530;49.968;19.844;2022-09-17T16:04:43;10.90;;;4.60;;
20739;SDS011;10530;49.968;19.844;2022-09-17T16:09:49;12.63;;;4.70;;
20739;SDS011;10530;49.968;19.844;2022-09-17T16:14:55;9.52;;;4.60;;
20739;SDS011;10530;49.968;19.844;2022-09-17T16:20:03;9.57;;;4.57;;
20739;SDS011;10530;49.968;19.844;2022-09-17T16:25:09;11.35;;;4.43;;
20739;SDS011;10530;49.968;19.844;2022-09-17T16:30:14;11.68;;;5.10;;
20739;SDS011;10530;49.968;19.844;2022-09-17T16:35:19;10.37;;;4.67;;
20739;SDS011;10530;49.968;19.844;2022-09-17T16:40:24;11.02;;;4.40;;
20739;SDS011;10530;49.968;19.844;2022-09-17T16:45:29;8.35;;;3.70;;
20739;SDS011;10530;49.968;19.844;2022-09-17T16:50:33;8.43;;;3.38;;
20739;SDS011;10530;49.968;19.844;2022-09-17T16:55:37;8.32;;;3.63;;
20739;SDS011;10530;49.968;19.844;2022-09-17T17:00:43;9.70;;;3.60;;
20739;SDS011;10530;49.968;19.844;2022-09-17T17:05:46;6.93;;;3.70;;
20739;SDS011;10530;49.968;19.844;2022-09-17T17:10:49;8.93;;;3.47;;
20739;SDS011;10530;49.968;19.844;2022-09-17T17:15:52;7.43;;;3.35;;
20739;SDS011;10530;49.968;19.844;2022-09-17T17:20:55;8.43;;;3.53;;
20739;SDS011;10530;49.968;19.844;2022-09-17T17:26:15;10.30;;;4.03;;
20739;SDS011;10530;49.968;19.844;2022-09-17T17:31:18;7.28;;;3.58;;
20739;SDS011;10530;49.968;19.844;2022-09-17T17:36:21;9.20;;;4.13;;
20739;SDS011;10530;49.968;19.844;2022-09-17T17:41:24;10.70;;;4.18;;
20739;SDS011;10530;49.968;19.844;2022-09-17T17:46:29;11.45;;;4.32;;
20739;SDS011;10530;49.968;19.844;2022-09-17T17:51:32;11.20;;;4.40;;
20739;SDS011;10530;49.968;19.844;2022-09-17T17:56:35;10.02;;;4.57;;
20739;SDS011;10530;49.968;19.844;2022-09-17T18:01:39;11.13;;;4.45;;
20739;SDS011;10530;49.968;19.844;2022-09-17T18:06:42;10.73;;;5.00;;
20739;SDS011;10530;49.968;19.844;2022-09-17T18:11:46;12.40;;;4.93;;
20739;SDS011;10530;49.968;19.844;2022-09-17T18:16:48;13.20;;;5.40;;
20739;SDS011;10530;49.968;19.844;2022-09-17T18:21:52;13.60;;;5.00;;
20739;SDS011;10530;49.968;19.844;2022-09-17T18:26:56;13.60;;;5.90;;
20739;SDS011;10530;49.968;19.844;2022-09-17T18:31:59;13.63;;;5.95;;
20739;SDS011;10530;49.968;19.844;2022-09-17T18:37:02;15.75;;;6.72;;
20739;SDS011;10530;49.968;19.844;2022-09-17T18:42:05;13.83;;;6.53;;
20739;SDS011;10530;49.968;19.844;2022-09-17T18:47:08;15.88;;;6.45;;
20739;SDS011;10530;49.968;19.844;2022-09-17T18:52:11;19.35;;;7.75;;
20739;SDS011;10530;49.968;19.844;2022-09-17T18:57:13;17.55;;;7.32;;
20739;SDS011;10530;49.968;19.844;2022-09-17T19:02:17;16.20;;;7.32;;
20739;SDS011;10530;49.968;19.844;2022-09-17T19:07:20;14.93;;;7.20;;
20739;SDS011;10530;49.968;19.844;2022-09-17T19:12:23;15.77;;;6.72;;
20739;SDS011;10530;49.968;19.844;2022-09-17T19:17:26;16.33;;;7.00;;
20739;SDS011;10530;49.968;19.844;2022-09-17T19:22:29;15.80;;;7.22;;
20739;SDS011;10530;49.968;19.844;2022-09-17T19:27:33;16.77;;;7.18;;
20739;SDS011;10530;49.968;19.844;2022-09-17T19:32:36;15.90;;;7.00;;
20739;SDS011;10530;49.968;19.844;2022-09-17T19:37:43;17.38;;;7.45;;
20739;SDS011;10530;49.968;19.844;2022-09-17T19:42:52;14.20;;;6.45;;
20739;SDS011;10530;49.968;19.844;2022-09-17T19:47:56;17.80;;;6.15;;
20739;SDS011;10530;49.968;19.844;2022-09-17T19:53:02;13.80;;;6.30;;
20739;SDS011;10530;49.968;19.844;2022-09-17T19:58:06;14.70;;;6.10;;
20739;SDS011;10530;49.968;19.844;2022-09-17T20:03:08;12.32;;;4.93;;
20739;SDS011;10530;49.968;19.844;2022-09-17T20:08:11;11.52;;;5.53;;
20739;SDS011;10530;49.968;19.844;2022-09-17T20:13:16;14.68;;;5.60;;
20739;SDS011;10530;49.968;19.844;2022-09-17T20:18:20;13.02;;;5.03;;
20739;SDS011;10530;49.968;19.844;2022-09-17T20:23:33;11.27;;;4.57;;
20739;SDS011;10530;49.968;19.844;2022-09-17T20:28:36;11.68;;;4.78;;
20739;SDS011;10530;49.968;19.844;2022-09-17T20:33:40;9.90;;;4.28;;
20739;SDS011;10530;49.968;19.844;2022-09-17T20:38:43;10.88;;;4.63;;
20739;SDS011;10530;49.968;19.844;2022-09-17T20:44:06;11.88;;;4.65;;
20739;SDS011;10530;49.968;19.844;2022-09-17T20:49:09;12.33;;;4.57;;
20739;SDS011;10530;49.968;19.844;2022-09-17T20:54:13;11.40;;;4.43;;
20739;SDS011;10530;49.968;19.844;2022-09-17T20:59:16;10.52;;;4.47;;
20739;SDS011;10530;49.968;19.844;2022-09-17T21:04:19;8.63;;;4.30;;
20739;SDS011;10530;49.968;19.844;2022-09-17T21:09:22;11.15;;;4.90;;
20739;SDS011;10530;49.968;19.844;2022-09-17T21:14:25;12.67;;;4.33;;
20739;SDS011;10530;49.968;19.844;2022-09-17T21:19:28;11.80;;;4.45;;
20739;SDS011;10530;49.968;19.844;2022-09-17T21:24:31;12.02;;;4.55;;
20739;SDS011;10530;49.968;19.844;2022-09-17T21:29:33;11.48;;;4.07;;
20739;SDS011;10530;49.968;19.844;2022-09-17T21:34:36;11.60;;;4.97;;
20739;SDS011;10530;49.968;19.844;2022-09-17T21:39:39;15.73;;;7.33;;
20739;SDS011;10530;49.968;19.844;2022-09-17T21:44:42;23.92;;;8.60;;
20739;SDS011;10530;49.968;19.844;2022-09-17T21:49:44;19.40;;;8.02;;
20739;SDS011;10530;49.968;19.844;2022-09-17T21:54:47;16.40;;;6.70;;
20739;SDS011;10530;49.968;19.844;2022-09-17T21:59:50;16.20;;;6.97;;
20739;SDS011;10530;49.968;19.844;2022-09-17T22:04:53;16.37;;;5.80;;
20739;SDS011;10530;49.968;19.844;2022-09-17T22:09:55;13.27;;;5.10;;
20739;SDS011;10530;49.968;19.844;2022-09-17T22:14:58;11.38;;;4.88;;
20739;SDS011;10530;49.968;19.844;2022-09-17T22:20:01;10.70;;;3.90;;
20739;SDS011;10530;49.968;19.844;2022-09-17T22:25:05;10.25;;;3.60;;
20739;SDS011;10530;49.968;19.844;2022-09-17T22:30:08;9.67;;;3.67;;
20739;SDS011;10530;49.968;19.844;2022-09-17T22:35:11;9.32;;;3.05;;
20739;SDS011;10530;49.968;19.844;2022-09-17T22:40:14;8.93;;;3.55;;
20739;SDS011;10530;49.968;19.844;2022-09-17T22:45:17;9.55;;;3.40;;
20739;SDS011;10530;49.968;19.844;2022-09-17T22:50:20;8.75;;;2.88;;
20739;SDS011;10530;49.968;19.844;2022-09-17T22:55:23;9.87;;;2.67;;
20739;SDS011;10530;49.968;19.844;2022-09-17T23:00:26;5.57;;;1.83;;
20739;SDS011;10530;49.968;19.844;2022-09-17T23:05:28;4.25;;;1.50;;
20739;SDS011;10530;49.968;19.844;2022-09-17T23:10:33;9.20;;;2.42;;
20739;SDS011;10530;49.968;19.844;2022-09-17T23:15:37;7.07;;;2.58;;
20739;SDS011;10530;49.968;19.844;2022-09-17T23:20:40;6.23;;;2.20;;
20739;SDS011;10530;49.968;19.844;2022-09-17T23:25:42;4.30;;;1.75;;
20739;SDS011;10530;49.968;19.844;2022-09-17T23:30:45;6.10;;;1.88;;
20739;SDS011;10530;49.968;19.844;2022-09-17T23:35:48;5.53;;;1.90;;
20739;SDS011;10530;49.968;19.844;2022-09-17T23:40:51;7.63;;;2.65;;
20739;SDS011;10530;49.968;19.844;2022-09-17T23:45:56;7.73;;;3.63;;
20739;SDS011;10530;49.968;19.844;2022-09-17T23:50:59;12.68;;;4.95;;
20739;SDS011;10530;49.968;19.844;2022-09-17T23:56:03;15.00;;;5.00;;
